Home > Products > Valid Products > TAF

000
FTUS44 KJAN 021732
TAFHBG
TAF
KHBG 021732Z 0218/0318 08005KT P6SM SKC=



000
FTUS44 KJAN 021732
TAFGLH
TAF
KGLH 021732Z 0218/0318 02005KT P6SM SKC=



000
FTUS44 KJAN 021732
TAFJAN
TAF
KJAN 021732Z 0218/0318 35011KT P6SM FEW080
     FM030000 00000KT P6SM SKC=



000
FTUS44 KJAN 021732
TAFGWO
TAF
KGWO 021732Z 0218/0318 03005KT P6SM SKC=



000
FTUS44 KJAN 021732
TAFHBG
TAF
KHBG 021732Z 0218/0318 08005KT P6SM SKC=



000
FTUS44 KJAN 021732
TAFMEI
TAF
KMEI 021732Z 0218/0318 08005KT P6SM SKC=



000
FTUS44 KJAN 021732
TAFGWO
TAF
KGWO 021732Z 0218/0318 03005KT P6SM SKC=



000
FTUS44 KJAN 021732
TAFJAN
TAF
KJAN 021732Z 0218/0318 35011KT P6SM FEW080
     FM030000 00000KT P6SM SKC=



000
FTUS44 KJAN 021732
TAFMEI
TAF
KMEI 021732Z 0218/0318 08005KT P6SM SKC=



000
FTUS44 KJAN 021732
TAFGLH
TAF
KGLH 021732Z 0218/0318 02005KT P6SM SKC=



000
FTUS44 KJAN 021122
TAFGLH
TAF
KGLH 021122Z 0212/0312 03004KT P6SM SKC=



000
FTUS44 KJAN 021122
TAFGWO
TAF
KGWO 021122Z 0212/0312 02004KT P6SM SKC=



000
FTUS44 KJAN 021122
TAFMEI
TAF
KMEI 021122Z 0212/0312 03004KT P6SM SKC=



000
FTUS44 KJAN 021122
TAFHBG
TAF
KHBG 021122Z 0212/0312 07004KT P6SM SKC=



000
FTUS44 KJAN 021122
TAFJAN
TAF
KJAN 021122Z 0212/0312 02004KT P6SM SKC=



000
FTUS44 KJAN 021122
TAFGLH
TAF
KGLH 021122Z 0212/0312 03004KT P6SM SKC=



000
FTUS44 KJAN 021122
TAFMEI
TAF
KMEI 021122Z 0212/0312 03004KT P6SM SKC=



000
FTUS44 KJAN 021122
TAFGWO
TAF
KGWO 021122Z 0212/0312 02004KT P6SM SKC=



000
FTUS44 KJAN 021122
TAFHBG
TAF
KHBG 021122Z 0212/0312 07004KT P6SM SKC=



000
FTUS44 KJAN 021122
TAFJAN
TAF
KJAN 021122Z 0212/0312 02004KT P6SM SKC=



000
FTUS44 KJAN 020520
TAFGLH
TAF
KGLH 020520Z 0206/0306 05004KT P6SM SKC=



000
FTUS44 KJAN 020520
TAFMEI
TAF
KMEI 020520Z 0206/0306 04004KT P6SM SKC=



000
FTUS44 KJAN 020520
TAFGWO
TAF
KGWO 020520Z 0206/0306 04004KT P6SM SKC=



000
FTUS44 KJAN 020520
TAFJAN
TAF
KJAN 020520Z 0206/0306 05004KT P6SM SKC=



000
FTUS44 KJAN 020520
TAFHBG
TAF
KHBG 020520Z 0206/0306 09004KT P6SM SKC=



000
FTUS44 KJAN 012334
TAFGLH
TAF
KGLH 012334Z 0200/0224 03006KT P6SM SKC=



000
FTUS44 KJAN 012334
TAFMEI
TAF
KMEI 012334Z 0200/0224 04007KT P6SM SKC=



000
FTUS44 KJAN 012334
TAFGWO
TAF
KGWO 012334Z 0200/0224 03006KT P6SM SKC=



000
FTUS44 KJAN 012334
TAFJAN
TAF
KJAN 012334Z 0200/0224 03007KT P6SM SKC=



000
FTUS44 KJAN 012334
TAFHBG
TAF
KHBG 012334Z 0200/0224 08007KT P6SM SKC=



000
FTUS44 KJAN 012334
TAFGWO
TAF
KGWO 012334Z 0200/0224 03006KT P6SM SKC=



000
FTUS44 KJAN 012334
TAFGLH
TAF
KGLH 012334Z 0200/0224 03006KT P6SM SKC=



000
FTUS44 KJAN 012334
TAFMEI
TAF
KMEI 012334Z 0200/0224 04007KT P6SM SKC=



000
FTUS44 KJAN 012334
TAFHBG
TAF
KHBG 012334Z 0200/0224 08007KT P6SM SKC=



000
FTUS44 KJAN 012334
TAFJAN
TAF
KJAN 012334Z 0200/0224 03007KT P6SM SKC=



000
FTUS44 KJAN 011720
TAFHBG
TAF
KHBG 011720Z 0118/0218 04010KT P6SM SKC
     FM020000 02003KT P6SM SKC=



000
FTUS44 KJAN 011720
TAFMEI
TAF
KMEI 011720Z 0118/0218 04017G22KT P6SM SKC
     FM020000 01004KT P6SM SKC=



000
FTUS44 KJAN 011720
TAFJAN
TAF
KJAN 011720Z 0118/0218 03008G15KT P6SM SKC
     FM020000 02004KT P6SM SKC=



000
FTUS44 KJAN 011720
TAFMEI
TAF
KMEI 011720Z 0118/0218 04017G22KT P6SM SKC
     FM020000 01004KT P6SM SKC=



000
FTUS44 KJAN 011720
TAFHBG
TAF
KHBG 011720Z 0118/0218 04010KT P6SM SKC
     FM020000 02003KT P6SM SKC=



000
FTUS44 KJAN 011720
TAFGWO
TAF
KGWO 011720Z 0118/0218 02008G15KT P6SM SKC
     FM020000 03003KT P6SM SKC=



000
FTUS44 KJAN 011720
TAFGLH
TAF
KGLH 011720Z 0118/0218 03008G17KT P6SM SKC
     FM020000 02003KT P6SM SKC=



000
FTUS44 KJAN 011720
TAFGWO
TAF
KGWO 011720Z 0118/0218 02008G15KT P6SM SKC
     FM020000 03003KT P6SM SKC=



000
FTUS44 KJAN 011720
TAFJAN
TAF
KJAN 011720Z 0118/0218 03008G15KT P6SM SKC
     FM020000 02004KT P6SM SKC=



000
FTUS44 KJAN 011720
TAFGLH
TAF
KGLH 011720Z 0118/0218 03008G17KT P6SM SKC
     FM020000 02003KT P6SM SKC=



000
FTUS44 KJAN 011123
TAFGWO
TAF
KGWO 011123Z 0112/0212 05004KT P6SM SKC
     FM011600 04010G16KT P6SM SKC
     FM020000 03003KT P6SM SKC=



000
FTUS44 KJAN 011123
TAFJAN
TAF
KJAN 011123Z 0112/0212 03005KT P6SM SKC
     FM011600 03013KT P6SM SKC
     FM020000 02004KT P6SM SKC=



000
FTUS44 KJAN 011123
TAFGLH
TAF
KGLH 011123Z 0112/0212 04006KT P6SM SKC
     FM011600 04009G15KT P6SM SKC
     FM020000 02003KT P6SM SKC=



000
FTUS44 KJAN 011123
TAFHBG
TAF
KHBG 011123Z 0112/0212 03006KT P6SM SKC
     FM011600 03008G14KT P6SM SKC
     FM020000 02003KT P6SM SKC=



000
FTUS44 KJAN 011123
TAFHBG
TAF
KHBG 011123Z 0112/0212 03006KT P6SM SKC
     FM011600 03008G14KT P6SM SKC
     FM020000 02003KT P6SM SKC=



000
FTUS44 KJAN 011123
TAFMEI
TAF
KMEI 011123Z 0112/0212 03007KT P6SM SKC
     FM011600 02013KT P6SM SKC
     FM020000 01004KT P6SM SKC=



000
FTUS44 KJAN 011123
TAFMEI
TAF
KMEI 011123Z 0112/0212 03007KT P6SM SKC
     FM011600 02013KT P6SM SKC
     FM020000 01004KT P6SM SKC=



000
FTUS44 KJAN 010520
TAFJAN
TAF
KJAN 010520Z 0106/0206 03005KT P6SM SKC
     FM011600 03013G19KT P6SM SKC
     FM020000 02005KT P6SM SKC=



000
FTUS44 KJAN 010520
TAFGWO
TAF
KGWO 010520Z 0106/0206 04003KT P6SM SKC
     FM011600 03010G16KT P6SM SKC
     FM020000 03004KT P6SM SKC=



000
FTUS44 KJAN 010520
TAFGLH
TAF
KGLH 010520Z 0106/0206 03005KT P6SM SKC
     FM011600 05011G17KT P6SM SKC
     FM020000 02005KT P6SM SKC=



000
FTUS44 KJAN 010520
TAFGLH
TAF
KGLH 010520Z 0106/0206 03005KT P6SM SKC
     FM011600 05011G17KT P6SM SKC
     FM020000 02005KT P6SM SKC=



000
FTUS44 KJAN 010520
TAFHBG
TAF
KHBG 010520Z 0106/0206 03003KT P6SM SKC
     FM011600 04010KT P6SM SKC
     FM020000 01004KT P6SM SKC=



000
FTUS44 KJAN 010520
TAFHBG
TAF
KHBG 010520Z 0106/0206 03003KT P6SM SKC
     FM011600 04010KT P6SM SKC
     FM020000 01004KT P6SM SKC=



000
FTUS44 KJAN 010520
TAFGWO
TAF
KGWO 010520Z 0106/0206 04003KT P6SM SKC
     FM011600 03010G16KT P6SM SKC
     FM020000 03004KT P6SM SKC=



000
FTUS44 KJAN 010520
TAFMEI
TAF
KMEI 010520Z 0106/0206 02005KT P6SM SKC
     FM011600 02013G20KT P6SM SKC
     FM020000 02006KT P6SM SKC=



000
FTUS44 KJAN 010520
TAFMEI
TAF
KMEI 010520Z 0106/0206 02005KT P6SM SKC
     FM011600 02013G20KT P6SM SKC
     FM020000 02006KT P6SM SKC=



000
FTUS44 KJAN 312320
TAFGWO
TAF
KGWO 312320Z 0100/0124 01005KT P6SM SKC
     FM011400 04011KT P6SM SKC=



000
FTUS44 KJAN 312320
TAFMEI
TAF
KMEI 312320Z 0100/0124 01005KT P6SM SKC
     FM011400 03012KT P6SM SKC=



000
FTUS44 KJAN 312320
TAFJAN
TAF
KJAN 312320Z 0100/0124 01006KT P6SM SKC
     FM011400 03013KT P6SM SKC=



000
FTUS44 KJAN 312320
TAFGLH
TAF
KGLH 312320Z 0100/0124 01006KT P6SM SKC
     FM011400 04012KT P6SM SKC=



000
FTUS44 KJAN 312320
TAFHBG
TAF
KHBG 312320Z 0100/0124 36004KT P6SM SKC
     FM011400 03010KT P6SM FEW050=



000
FTUS44 KJAN 311720
TAFMEI
TAF
KMEI 311720Z 3118/0118 01012G20KT P6SM SKC
     FM010000 01005KT P6SM SKC=



000
FTUS44 KJAN 311720
TAFHBG
TAF
KHBG 311720Z 3118/0118 02010KT P6SM SKC
     FM010000 01005KT P6SM SKC=



000
FTUS44 KJAN 311720
TAFJAN
TAF
KJAN 311720Z 3118/0118 03010G20KT P6SM SKC
     FM010000 01005KT P6SM SKC=



000
FTUS44 KJAN 311720
TAFGLH
TAF
KGLH 311720Z 3118/0118 03009G19KT P6SM SKC
     FM010000 01005KT P6SM SKC=



000
FTUS44 KJAN 311720
TAFGWO
TAF
KGWO 311720Z 3118/0118 05011G19KT P6SM SKC
     FM010000 01005KT P6SM SKC=



000
FTUS44 KJAN 311123
TAFGLH
TAF
KGLH 311123Z 3112/0112 02008KT P6SM SKC
     FM311500 04014G22KT P6SM SKC
     FM010000 01005KT P6SM SKC=



000
FTUS44 KJAN 311123
TAFGWO
TAF
KGWO 311123Z 3112/0112 04007KT P6SM SKC
     FM311500 04012G18KT P6SM SKC
     FM010000 01005KT P6SM SKC=



000
FTUS44 KJAN 311123
TAFJAN
TAF
KJAN 311123Z 3112/0112 02009KT P6SM SKC
     FM311500 02012G20KT P6SM SKC
     FM010000 01005KT P6SM SKC=



000
FTUS44 KJAN 311123
TAFHBG
TAF
KHBG 311123Z 3112/0112 35006KT P6SM SKC
     FM311400 03009G17KT P6SM FEW050
     FM010000 01005KT P6SM SKC=



000
FTUS44 KJAN 311123
TAFMEI
TAF
KMEI 311123Z 3112/0112 02008KT P6SM SKC
     FM311500 02013G22KT P6SM SKC
     FM010000 01005KT P6SM SKC=



000
FTUS44 KJAN 310531
TAFGLH
TAF
KGLH 310531Z 3106/0106 02007KT P6SM SKC
     FM311500 04014G22KT P6SM SKC
     FM010000 01005KT P6SM SKC=



000
FTUS44 KJAN 310531
TAFGWO
TAF
KGWO 310531Z 3106/0106 02005KT P6SM SKC
     FM311500 04012G18KT P6SM SKC
     FM010000 01005KT P6SM SKC=



000
FTUS44 KJAN 310531
TAFHBG
TAF
KHBG 310531Z 3106/0106 34005KT P6SM SCT250
     FM311400 03009G17KT P6SM FEW050
     FM010000 01005KT P6SM SKC=



000
FTUS44 KJAN 310531
TAFJAN
TAF
KJAN 310531Z 3106/0106 03006KT P6SM FEW250
     FM311500 02012G20KT P6SM SKC
     FM010000 01005KT P6SM SKC=



000
FTUS44 KJAN 310531
TAFMEI
TAF
KMEI 310531Z 3106/0106 36006KT P6SM FEW250
     FM311500 02013G22KT P6SM SKC
     FM010000 01005KT P6SM SKC=



000
FTUS44 KJAN 302320
TAFGWO
TAF
KGWO 302320Z 3100/3124 36007KT P6SM SKC
     FM311500 04010G17KT P6SM SKC=



000
FTUS44 KJAN 302320
TAFMEI
TAF
KMEI 302320Z 3100/3124 01006KT P6SM FEW250
     FM311000 01005KT 6SM BR HZ SKC
     FM311400 02011G20KT P6SM FEW050=



000
FTUS44 KJAN 302320
TAFHBG
TAF
KHBG 302320Z 3100/3124 30005KT P6SM -SHRA VCTS SCT030 BKN050CB
      BKN120
     FM310100 33005KT P6SM FEW050 SCT250
     FM310500 33004KT 5SM BR FEW006
     FM311400 03009G17KT P6SM SCT050=



000
FTUS44 KJAN 302320
TAFGLH
TAF
KGLH 302320Z 3100/3124 01010KT P6SM SKC
     FM311500 04012G20KT P6SM SKC=



000
FTUS44 KJAN 302320
TAFJAN
TAF
KJAN 302320Z 3100/3124 36006KT P6SM FEW050 SCT200
     FM311500 02012G20KT P6SM FEW060=



    US Dept of Commerce
    National Oceanic and Atmospheric Administration
    National Weather Service
    1325 East West Highway
    Silver Spring, MD 20910
    Page Author: NWS Internet Services Team
Disclaimer
Information Quality
Credits
Glossary
Privacy Policy
Freedom of Information Act (FOIA)
About Us
Career Opportunities